logo
App data

Incognito

An indie game like no other. Incognito is a cross genre adventure that thrusts you into a foreign solar system known as Sector 42. You are forced to survive in deep space through exploration and questing between planets. Incognito mixes different gaming genres together into one complete narrative.
Store | Hub | SteamDB
Developer: Maxwolf, Fox Publisher: Maxwolf, Fox
Genre: Action, Adventure, Indie
Languages: English
Tags: Action (23), Indie (23), Adventure (23), RTS (14), Space (13), Sci-fi (12), FPS (11)
Category: Single-player, Steam Achievements, Steam Trading Cards, Steam Cloud, Stats, Includes level editor
Release date: Mar 23, 2015
Price: $7.99
Owners: 0 .. 20,000
Followers: 444
YouTube stats: 86,304 views and 1,046 comments for videos uploaded last week, 1 new videos uploaded yesterday.
Playtime total: 04:11 (average) 03:58 (median)

Steam Spy is still in beta, so expect major bugs.

Owners data:

Access restricted.

This feature is only available to users with special access rights. Sorry.

If you want to proceed, you need to register or log in first and then back Steam Spy on Patreon. Look for Indie or Pro pledge.

Don't forget to use the same email as on Steam Spy!

Audience in 2 weeks:

Access restricted.

This feature is only available to users with special access rights. Sorry.

If you want to proceed, you need to register or log in first and then back Steam Spy on Patreon. Look for Indie or Pro pledge.

Don't forget to use the same email as on Steam Spy!

Peak daily concurrent players:

CCU data courtesy of SteamDB. Used with permission.

Hourly concurrent players:

Daily Twitch stats:

Hourly Twitch stats:

YouTube:

The views data is based on top 50 videos uploaded last week. Actual number of views might be more than the number shown.

The displayed number of videos uploaded yesterday is limited to 50, so if there were more videos uploaded, the number will still show 50.

If the game has commonly used word as its name (like "FEAR" or "Volume") its number of Youtube views might be wrong.

Games similar to this one:

# Game Release date
Price
Score rank
(Userscore / Metascore)
Owners
Players
Playtime (Median)
1 Buried: An Interactive Story Jan 22, 2016 $2.9995% (96%)0 .. 20,0000%00:00 (00:00)
2 Highrise Heroes: Word Challenge Jan 8, 2016 $4.99N/A (N/A)0 .. 20,0000%00:00 (00:00)
3 Rusty Lake Hotel Jan 29, 2016 $1.9987% (93%/65%)50,000 .. 100,0002.44%02:04 (02:03)
4 Dark Echo May 11, 2015 $2.9983% (92%)20,000 .. 50,0000%00:00 (00:00)
5 FLAMBERGE ||| SIMULTANEOUS TACTICS Mar 25, 2015 $9.9983% (92%)0 .. 20,0000%00:00 (00:00)
6 199X Mar 10, 2015 $1.9976% (90%)0 .. 20,0003.85%02:21 (00:47)
7 Silver Creek Falls: Chapter 2 Sep 30, 2015 $4.99N/A (N/A)0 .. 20,0000%00:00 (00:00)
8 Stories Untold Feb 27, 2017 $9.9968% (87%/81%)100,000 .. 200,0000%00:00 (00:00)
9 School of Talent: SUZU-ROUTE Feb 23, 2017 $8.9968% (87%)0 .. 20,0000%00:00 (00:00)
10 Mr. Pumpkin Adventure Jul 8, 2016 $3.9968% (87%)0 .. 20,0008.33%00:36 (00:18)
11 Night Shift Feb 23, 2015 $4.9962% (85%)0 .. 20,0000%00:00 (00:00)
12 Serafina's Crown Mar 15, 2016 $7.99N/A (N/A)20,000 .. 50,0000%00:00 (00:00)
13 Breathing Fear Oct 7, 2016 $2.9957% (83%)20,000 .. 50,0000%00:00 (00:00)
14 Reflection of Mine Feb 24, 2017 $7.9957% (83%)0 .. 20,0000%00:00 (00:00)
15 The Narrator Is a DICK Jun 14, 2016 $4.9950% (80%)0 .. 20,0000%00:00 (00:00)
16 Dead Secret Mar 28, 2016 $14.9950% (80%)20,000 .. 50,0002.78%19:58 (06:39)
17 East Tower - Takashi May 27, 2015 $5.99N/A (N/A)0 .. 20,0000%00:00 (00:00)
18 The Rivers of Alice - Extended Version Nov 16, 2015 $7.99N/A (N/A)0 .. 20,0000%00:00 (00:00)
19 Shutter Apr 2, 2015 $1.9944% (77%)20,000 .. 50,0000%00:00 (00:00)
20 Shadow Puppeteer Sep 29, 2014 $14.9940% (75%/57%)50,000 .. 100,0000%00:00 (00:00)
21 Blueberry Garden Jun 2009 $4.9938% (74%/68%)20,000 .. 50,0000%00:00 (00:00)
22 samurai_jazz Jan 27, 2015 $0.9937% (73%)0 .. 20,0000%00:00 (00:00)
23 A Detective's Novel Jul 28, 2016 $0.9935% (72%)200,000 .. 500,0000.25%117:46 (117:45)
24 Unearthed Inc: The Lost Temple Dec 16, 2016 N/AN/A (N/A)0 .. 20,0000%00:00 (00:00)
25 Scrap Garden May 6, 2016 $9.9933% (71%/58%)100,000 .. 200,0000%00:00 (00:00)
26 City Quest Aug 20, 2015 $1.99N/A (N/A)0 .. 20,0000%00:00 (00:00)
27 You Deserve Aug 19, 2016 $0.9930% (69%)20,000 .. 50,0000%00:00 (00:00)
28 Planetship Sep 24, 2015 $8.9930% (69%)0 .. 20,0000%00:00 (00:00)
29 Draw Slasher Oct 13, 2016 $4.9929% (68%)0 .. 20,0000%00:00 (00:00)
30 Pneuma: Breath of Life Feb 27, 2015 $19.9929% (68%/63%)0 .. 20,0000%00:00 (00:00)
31 The Adventures of Fatman Oct 1, 2015 $1.99N/A (N/A)0 .. 20,0000%00:00 (00:00)
32 CRIMSON ROOM DECADE Jun 9, 2016 $9.99N/A (N/A)0 .. 20,0000%00:00 (00:00)
33 Hamilton's Great Adventure May 31, 2011 $9.9927% (67%/77%)100,000 .. 200,0000%00:00 (00:00)
34 Enola Sep 18, 2014 $14.9924% (65%)20,000 .. 50,0001.79%05:34 (01:51)
35 The Butterfly Sign Dec 13, 2016 $4.9921% (62%)200,000 .. 500,0000%00:00 (00:00)
36 Space Incident Sep 23, 2016 $3.99N/A (N/A)100,000 .. 200,0002.51%04:15 (04:44)
37 Catmouth Island Dec 31, 2014 $0.9920% (61%)20,000 .. 50,0000%00:00 (00:00)
38 Maria the Witch Mar 1, 2016 $4.9918% (60%)0 .. 20,0000%00:00 (00:00)
39 ENKI Jul 31, 2015 $4.9916% (58%/43%)20,000 .. 50,0000%00:00 (00:00)
40 Alchemist Dec 29, 2016 $2.99N/A (N/A)20,000 .. 50,0000%00:00 (00:00)
41 Sideway New York Nov 15, 2011 $9.9914% (56%/71%)50,000 .. 100,0000%00:00 (00:00)
42 Little Jack's Adventures Dec 28, 2016 $0.99N/A (N/A)50,000 .. 100,0000%00:00 (00:00)
43 Rock Zombie Nov 20, 2014 $6.99N/A (N/A)0 .. 20,0000%00:00 (00:00)
44 Penumbra: Requiem N/A11% (51%/67%)0 .. 20,0000%00:00 (00:00)
45 Not without my donuts Apr 28, 2015 $3.99N/A (N/A)20,000 .. 50,0000%00:00 (00:00)
46 Last Inua Dec 11, 2014 $7.9910% (49%)20,000 .. 50,0001.41%00:02 (00:00)
47 Shattered Haven Mar 18, 2013 $9.998% (45%/59%)50,000 .. 100,0000%00:00 (00:00)
48 Lex Mortis Feb 9, 2015 $4.997% (42%)200,000 .. 500,0000%00:00 (00:00)
49 Krampus Oct 18, 2016 $4.996% (41%)100,000 .. 200,0000%00:00 (00:00)
50 'n Verlore Verstand Apr 5, 2016 $2.996% (41%)50,000 .. 100,0000%00:00 (00:00)
51 Bibou Apr 29, 2016 $1.995% (37%)100,000 .. 200,0000%00:00 (00:00)
52 Magdalena Feb 22, 2016 $2.994% (36%)200,000 .. 500,0000.17%335:18 (111:46)
53 Time Of Silence Dec 6, 2016 $0.994% (33%)100,000 .. 200,0002.5%03:57 (04:37)
54 Worst Case Z Apr 15, 2016 $1.29N/A (N/A)0 .. 20,0000%00:00 (00:00)
55 Tesla Breaks the World! Nov 26, 2014 $9.99N/A (N/A)0 .. 20,0000%00:00 (00:00)
56 Lone Leader Oct 28, 2016 $0.991% (20%)200,000 .. 500,0000.15%07:35 (02:31)
57 Ball of Light Dec 9, 2016 $3.991% (20%)200,000 .. 500,0000.73%04:08 (02:46)
58 The Spirit Underneath Jan 2, 2017 $0.99N/A (N/A)200,000 .. 500,0000.42%03:13 (02:50)
59 Haywire on Fuel Station Zeta Sep 24, 2015 $3.99N/A (N/A)20,000 .. 50,0001.02%00:27 (00:09)
60 Pillar May 29, 2015 $7.99N/A (N/A)20,000 .. 50,0000%00:00 (00:00)
61 Chowderchu Jan 4, 2016 $2.99N/A (N/A)20,000 .. 50,0002.48%03:31 (04:33)
62 Yasai Ninja Jul 21, 2015 $1.99N/A (N/A)0 .. 20,0000%00:00 (00:00)
63 Dungeon Lurk II - Leona Oct 27, 2014 $9.99N/A (N/A)0 .. 20,0000%00:00 (00:00)
64 Replay - VHS is not dead Jul 9, 2015 $9.99N/A (N/A)0 .. 20,0000%00:00 (00:00)

Tags over time:

Access restricted.

This feature is only available to users with special access rights. Sorry.

If you want to proceed, you need to register or log in first and then back Steam Spy on Patreon. Look for Indie or Pro pledge.

Don't forget to use the same email as on Steam Spy!

Owners of this game also own:

Access restricted.

This feature is only available to users with special access rights. Sorry.

If you want to proceed, you need to register or log in first and then back Steam Spy on Patreon. Look for Indie or Pro pledge.

Don't forget to use the same email as on Steam Spy!

Playtime distribution:

Access restricted.

This feature is only available to users with special access rights. Sorry.

If you want to proceed, you need to register or log in first and then back Steam Spy on Patreon. Look for Indie or Pro pledge.

Don't forget to use the same email as on Steam Spy!

Playtime (2 weeks):

Access restricted.

This feature is only available to users with special access rights. Sorry.

If you want to proceed, you need to register or log in first and then back Steam Spy on Patreon. Look for Indie or Pro pledge.

Don't forget to use the same email as on Steam Spy!

User reviews:

Login required.

Please register or log in to see this information.